sensor_id;sensor_type;location;lat;lon;timestamp;pressure;altitude;pressure_sealevel;temperature;humidity
69058;BME280;56128;37.534;-122.308;2023-04-06T00:00:09;102064.22;;;11.82;100.00
69058;BME280;56128;37.534;-122.308;2023-04-06T00:02:36;102065.97;;;11.83;100.00
69058;BME280;56128;37.534;-122.308;2023-04-06T00:05:02;102060.59;;;11.83;100.00
69058;BME280;56128;37.534;-122.308;2023-04-06T00:07:28;102059.06;;;11.79;100.00
69058;BME280;56128;37.534;-122.308;2023-04-06T00:09:55;102056.19;;;11.67;100.00
69058;BME280;56128;37.534;-122.308;2023-04-06T00:12:21;102049.66;;;11.57;100.00
69058;BME280;56128;37.534;-122.308;2023-04-06T00:14:47;102059.84;;;11.50;100.00
69058;BME280;56128;37.534;-122.308;2023-04-06T00:17:14;102061.94;;;11.45;100.00
69058;BME280;56128;37.534;-122.308;2023-04-06T00:19:40;102054.69;;;11.47;100.00
69058;BME280;56128;37.534;-122.308;2023-04-06T00:22:06;102062.47;;;11.52;100.00
69058;BME280;56128;37.534;-122.308;2023-04-06T00:24:32;102046.19;;;11.55;100.00
69058;BME280;56128;37.534;-122.308;2023-04-06T00:26:59;102046.59;;;11.63;100.00
69058;BME280;56128;37.534;-122.308;2023-04-06T00:29:25;102049.88;;;11.68;100.00
69058;BME280;56128;37.534;-122.308;2023-04-06T00:31:51;102054.06;;;11.73;100.00
69058;BME280;56128;37.534;-122.308;2023-04-06T00:34:17;102043.94;;;11.78;100.00
69058;BME280;56128;37.534;-122.308;2023-04-06T00:36:44;102038.47;;;11.79;100.00
69058;BME280;56128;37.534;-122.308;2023-04-06T00:39:10;102034.72;;;11.82;100.00
69058;BME280;56128;37.534;-122.308;2023-04-06T00:41:36;102040.03;;;11.83;100.00
69058;BME280;56128;37.534;-122.308;2023-04-06T00:44:03;102041.56;;;11.88;100.00
69058;BME280;56128;37.534;-122.308;2023-04-06T00:46:29;102033.41;;;11.89;100.00
69058;BME280;56128;37.534;-122.308;2023-04-06T00:48:56;102028.72;;;11.93;100.00
69058;BME280;56128;37.534;-122.308;2023-04-06T00:51:23;102033.97;;;11.94;100.00
69058;BME280;56128;37.534;-122.308;2023-04-06T00:53:49;102039.09;;;11.99;100.00
69058;BME280;56128;37.534;-122.308;2023-04-06T00:56:15;102035.56;;;11.98;100.00
69058;BME280;56128;37.534;-122.308;2023-04-06T00:58:41;102038.31;;;11.97;100.00
69058;BME280;56128;37.534;-122.308;2023-04-06T01:01:07;102034.88;;;11.95;100.00
69058;BME280;56128;37.534;-122.308;2023-04-06T01:03:34;102039.44;;;11.93;100.00
69058;BME280;56128;37.534;-122.308;2023-04-06T01:06:00;102036.56;;;11.81;100.00
69058;BME280;56128;37.534;-122.308;2023-04-06T01:08:27;102037.41;;;11.82;100.00
69058;BME280;56128;37.534;-122.308;2023-04-06T01:10:53;102039.03;;;11.70;100.00
69058;BME280;56128;37.534;-122.308;2023-04-06T01:13:19;102036.63;;;11.65;100.00
69058;BME280;56128;37.534;-122.308;2023-04-06T01:15:46;102046.41;;;11.66;100.00
69058;BME280;56128;37.534;-122.308;2023-04-06T01:18:13;102037.94;;;11.58;100.00
69058;BME280;56128;37.534;-122.308;2023-04-06T01:20:39;102042.06;;;11.49;100.00
69058;BME280;56128;37.534;-122.308;2023-04-06T01:23:05;102035.81;;;11.34;100.00
69058;BME280;56128;37.534;-122.308;2023-04-06T01:25:31;102032.59;;;11.28;100.00
69058;BME280;56128;37.534;-122.308;2023-04-06T01:27:57;102037.56;;;11.19;100.00
69058;BME280;56128;37.534;-122.308;2023-04-06T01:30:23;102034.66;;;11.08;100.00
69058;BME280;56128;37.534;-122.308;2023-04-06T01:32:50;102044.94;;;11.00;100.00
69058;BME280;56128;37.534;-122.308;2023-04-06T01:35:17;102023.06;;;10.92;100.00
69058;BME280;56128;37.534;-122.308;2023-04-06T01:37:44;102033.88;;;10.90;100.00
69058;BME280;56128;37.534;-122.308;2023-04-06T01:40:11;102019.91;;;10.85;100.00
69058;BME280;56128;37.534;-122.308;2023-04-06T01:42:37;102029.06;;;10.81;100.00
69058;BME280;56128;37.534;-122.308;2023-04-06T01:45:04;102027.44;;;10.78;100.00
69058;BME280;56128;37.534;-122.308;2023-04-06T01:47:50;102028.72;;;10.71;100.00
69058;BME280;56128;37.534;-122.308;2023-04-06T01:50:16;102021.13;;;10.63;100.00
69058;BME280;56128;37.534;-122.308;2023-04-06T01:52:43;102017.31;;;10.51;100.00
69058;BME280;56128;37.534;-122.308;2023-04-06T01:55:09;102023.97;;;10.44;100.00
69058;BME280;56128;37.534;-122.308;2023-04-06T01:57:35;102025.38;;;10.34;100.00
69058;BME280;56128;37.534;-122.308;2023-04-06T02:00:01;102026.69;;;10.27;100.00
69058;BME280;56128;37.534;-122.308;2023-04-06T02:02:28;102024.16;;;10.23;100.00
69058;BME280;56128;37.534;-122.308;2023-04-06T02:04:54;102030.78;;;10.16;100.00
69058;BME280;56128;37.534;-122.308;2023-04-06T02:07:20;102024.91;;;10.10;100.00
69058;BME280;56128;37.534;-122.308;2023-04-06T02:09:46;102034.28;;;10.01;100.00
69058;BME280;56128;37.534;-122.308;2023-04-06T02:12:13;102029.28;;;9.95;100.00
69058;BME280;56128;37.534;-122.308;2023-04-06T02:14:39;102026.16;;;9.86;100.00
69058;BME280;56128;37.534;-122.308;2023-04-06T02:17:05;102024.97;;;9.74;100.00
69058;BME280;56128;37.534;-122.308;2023-04-06T02:19:31;102025.22;;;9.70;100.00
69058;BME280;56128;37.534;-122.308;2023-04-06T02:21:57;102025.88;;;9.57;100.00
69058;BME280;56128;37.534;-122.308;2023-04-06T02:24:24;102030.75;;;9.49;100.00
69058;BME280;56128;37.534;-122.308;2023-04-06T02:26:50;102034.56;;;9.43;100.00
69058;BME280;56128;37.534;-122.308;2023-04-06T02:29:16;102043.06;;;9.34;100.00
69058;BME280;56128;37.534;-122.308;2023-04-06T02:31:42;102035.38;;;9.28;100.00
69058;BME280;56128;37.534;-122.308;2023-04-06T02:34:08;102030.50;;;9.19;100.00
69058;BME280;56128;37.534;-122.308;2023-04-06T02:36:37;102027.19;;;9.14;100.00
69058;BME280;56128;37.534;-122.308;2023-04-06T02:39:03;102028.56;;;9.03;100.00
69058;BME280;56128;37.534;-122.308;2023-04-06T02:41:29;102020.09;;;8.95;100.00
69058;BME280;56128;37.534;-122.308;2023-04-06T02:43:56;102027.38;;;8.91;100.00
69058;BME280;56128;37.534;-122.308;2023-04-06T02:46:22;102032.31;;;8.82;100.00
69058;BME280;56128;37.534;-122.308;2023-04-06T02:48:48;102040.69;;;8.74;100.00
69058;BME280;56128;37.534;-122.308;2023-04-06T02:51:14;102049.91;;;8.67;100.00
69058;BME280;56128;37.534;-122.308;2023-04-06T02:53:41;102041.44;;;8.58;100.00
69058;BME280;56128;37.534;-122.308;2023-04-06T02:56:07;102044.31;;;8.54;100.00
69058;BME280;56128;37.534;-122.308;2023-04-06T02:58:33;102039.25;;;8.48;100.00
69058;BME280;56128;37.534;-122.308;2023-04-06T03:01:00;102027.97;;;8.41;100.00
69058;BME280;56128;37.534;-122.308;2023-04-06T03:03:26;102046.94;;;8.35;100.00
69058;BME280;56128;37.534;-122.308;2023-04-06T03:05:52;102051.66;;;8.28;100.00
69058;BME280;56128;37.534;-122.308;2023-04-06T03:08:20;102048.28;;;8.24;100.00
69058;BME280;56128;37.534;-122.308;2023-04-06T03:10:46;102045.91;;;8.18;100.00
69058;BME280;56128;37.534;-122.308;2023-04-06T03:13:12;102045.38;;;8.10;100.00
69058;BME280;56128;37.534;-122.308;2023-04-06T03:15:38;102046.38;;;8.07;100.00
69058;BME280;56128;37.534;-122.308;2023-04-06T03:18:05;102044.06;;;8.00;100.00
69058;BME280;56128;37.534;-122.308;2023-04-06T03:20:34;102048.69;;;7.96;100.00
69058;BME280;56128;37.534;-122.308;2023-04-06T03:23:00;102049.03;;;7.88;100.00
69058;BME280;56128;37.534;-122.308;2023-04-06T03:25:26;102053.69;;;7.83;100.00
69058;BME280;56128;37.534;-122.308;2023-04-06T03:27:52;102047.75;;;7.76;100.00
69058;BME280;56128;37.534;-122.308;2023-04-06T03:30:19;102049.00;;;7.68;100.00
69058;BME280;56128;37.534;-122.308;2023-04-06T03:32:45;102052.91;;;7.60;100.00
69058;BME280;56128;37.534;-122.308;2023-04-06T03:35:11;102051.34;;;7.55;100.00
69058;BME280;56128;37.534;-122.308;2023-04-06T03:37:38;102049.69;;;7.52;100.00
69058;BME280;56128;37.534;-122.308;2023-04-06T03:40:05;102054.28;;;7.48;100.00
69058;BME280;56128;37.534;-122.308;2023-04-06T03:42:31;102055.53;;;7.40;100.00
69058;BME280;56128;37.534;-122.308;2023-04-06T03:44:58;102050.53;;;7.32;100.00
69058;BME280;56128;37.534;-122.308;2023-04-06T03:47:25;102060.44;;;7.28;100.00
69058;BME280;56128;37.534;-122.308;2023-04-06T03:49:51;102061.63;;;7.21;100.00
69058;BME280;56128;37.534;-122.308;2023-04-06T03:52:17;102049.50;;;7.14;100.00
69058;BME280;56128;37.534;-122.308;2023-04-06T03:54:43;102059.41;;;7.10;100.00
69058;BME280;56128;37.534;-122.308;2023-04-06T03:57:10;102055.25;;;7.03;100.00
69058;BME280;56128;37.534;-122.308;2023-04-06T03:59:36;102057.91;;;7.03;100.00
69058;BME280;56128;37.534;-122.308;2023-04-06T04:02:02;102058.09;;;6.98;100.00
69058;BME280;56128;37.534;-122.308;2023-04-06T04:04:28;102067.13;;;6.94;100.00
69058;BME280;56128;37.534;-122.308;2023-04-06T04:06:57;102068.81;;;6.97;100.00
69058;BME280;56128;37.534;-122.308;2023-04-06T04:09:23;102077.03;;;6.91;100.00
69058;BME280;56128;37.534;-122.308;2023-04-06T04:11:49;102077.09;;;6.89;100.00
69058;BME280;56128;37.534;-122.308;2023-04-06T04:14:16;102080.69;;;6.88;100.00
69058;BME280;56128;37.534;-122.308;2023-04-06T04:16:42;102073.88;;;6.81;100.00
69058;BME280;56128;37.534;-122.308;2023-04-06T04:19:08;102079.19;;;6.81;100.00
69058;BME280;56128;37.534;-122.308;2023-04-06T04:21:45;102081.97;;;6.78;100.00
69058;BME280;56128;37.534;-122.308;2023-04-06T04:24:12;102081.16;;;6.76;100.00
69058;BME280;56128;37.534;-122.308;2023-04-06T04:26:39;102086.38;;;6.79;100.00
69058;BME280;56128;37.534;-122.308;2023-04-06T04:29:06;102084.75;;;6.75;100.00
69058;BME280;56128;37.534;-122.308;2023-04-06T04:31:32;102086.47;;;6.76;100.00
69058;BME280;56128;37.534;-122.308;2023-04-06T04:33:59;102086.47;;;6.76;100.00
69058;BME280;56128;37.534;-122.308;2023-04-06T04:36:26;102078.56;;;6.74;100.00
69058;BME280;56128;37.534;-122.308;2023-04-06T04:38:52;102082.22;;;6.72;100.00
69058;BME280;56128;37.534;-122.308;2023-04-06T04:41:18;102082.47;;;6.65;100.00
69058;BME280;56128;37.534;-122.308;2023-04-06T04:43:45;102081.84;;;6.59;100.00
69058;BME280;56128;37.534;-122.308;2023-04-06T04:46:11;102091.59;;;6.58;100.00
69058;BME280;56128;37.534;-122.308;2023-04-06T04:48:37;102089.28;;;6.49;100.00
69058;BME280;56128;37.534;-122.308;2023-04-06T04:51:04;102085.81;;;6.47;100.00
69058;BME280;56128;37.534;-122.308;2023-04-06T04:53:31;102081.72;;;6.38;100.00
69058;BME280;56128;37.534;-122.308;2023-04-06T04:55:57;102087.88;;;6.39;100.00
69058;BME280;56128;37.534;-122.308;2023-04-06T04:58:23;102089.09;;;6.30;100.00
69058;BME280;56128;37.534;-122.308;2023-04-06T05:00:49;102097.13;;;6.28;100.00
69058;BME280;56128;37.534;-122.308;2023-04-06T05:03:23;102093.78;;;6.23;100.00
69058;BME280;56128;37.534;-122.308;2023-04-06T05:05:50;102098.53;;;6.15;100.00
69058;BME280;56128;37.534;-122.308;2023-04-06T05:08:16;102096.06;;;6.09;100.00
69058;BME280;56128;37.534;-122.308;2023-04-06T05:10:43;102107.50;;;6.11;100.00
69058;BME280;56128;37.534;-122.308;2023-04-06T05:13:10;102112.13;;;6.06;100.00
69058;BME280;56128;37.534;-122.308;2023-04-06T05:15:37;102112.34;;;5.98;100.00
69058;BME280;56128;37.534;-122.308;2023-04-06T05:18:07;102113.44;;;5.92;100.00
69058;BME280;56128;37.534;-122.308;2023-04-06T05:20:34;102114.41;;;5.90;100.00
69058;BME280;56128;37.534;-122.308;2023-04-06T05:23:01;102117.19;;;5.87;100.00
69058;BME280;56128;37.534;-122.308;2023-04-06T05:25:27;102119.06;;;5.83;100.00
69058;BME280;56128;37.534;-122.308;2023-04-06T05:27:54;102112.03;;;5.82;100.00
69058;BME280;56128;37.534;-122.308;2023-04-06T05:30:20;102102.44;;;5.78;100.00
69058;BME280;56128;37.534;-122.308;2023-04-06T05:32:47;102113.06;;;5.78;100.00
69058;BME280;56128;37.534;-122.308;2023-04-06T05:35:13;102107.81;;;5.76;100.00
69058;BME280;56128;37.534;-122.308;2023-04-06T05:37:39;102107.81;;;5.76;100.00
69058;BME280;56128;37.534;-122.308;2023-04-06T05:40:06;102105.94;;;5.78;100.00
69058;BME280;56128;37.534;-122.308;2023-04-06T05:42:37;102101.56;;;5.77;100.00
69058;BME280;56128;37.534;-122.308;2023-04-06T05:45:05;102099.72;;;5.79;100.00
69058;BME280;56128;37.534;-122.308;2023-04-06T05:47:31;102099.66;;;5.81;100.00
69058;BME280;56128;37.534;-122.308;2023-04-06T05:49:58;102105.03;;;5.79;100.00
69058;BME280;56128;37.534;-122.308;2023-04-06T05:52:24;102102.31;;;5.81;100.00
69058;BME280;56128;37.534;-122.308;2023-04-06T05:54:50;102091.94;;;5.75;100.00
69058;BME280;56128;37.534;-122.308;2023-04-06T05:57:16;102109.41;;;5.80;100.00
69058;BME280;56128;37.534;-122.308;2023-04-06T05:59:43;102100.59;;;5.80;100.00
69058;BME280;56128;37.534;-122.308;2023-04-06T06:02:09;102109.41;;;5.80;100.00
69058;BME280;56128;37.534;-122.308;2023-04-06T06:04:36;102115.59;;;5.81;100.00
69058;BME280;56128;37.534;-122.308;2023-04-06T06:07:02;102106.00;;;5.77;100.00
69058;BME280;56128;37.534;-122.308;2023-04-06T06:09:28;102106.91;;;5.76;100.00
69058;BME280;56128;37.534;-122.308;2023-04-06T06:11:54;102098.94;;;5.76;100.00
69058;BME280;56128;37.534;-122.308;2023-04-06T06:14:20;102098.94;;;5.76;100.00
69058;BME280;56128;37.534;-122.308;2023-04-06T06:16:47;102106.91;;;5.76;100.00
69058;BME280;56128;37.534;-122.308;2023-04-06T06:19:14;102102.50;;;5.76;100.00
69058;BME280;56128;37.534;-122.308;2023-04-06T06:21:40;102101.72;;;5.73;100.00
69058;BME280;56128;37.534;-122.308;2023-04-06T06:24:07;102098.16;;;5.74;100.00
69058;BME280;56128;37.534;-122.308;2023-04-06T06:26:33;102100.91;;;5.71;100.00
69058;BME280;56128;37.534;-122.308;2023-04-06T06:29:03;102099.28;;;5.66;100.00
69058;BME280;56128;37.534;-122.308;2023-04-06T06:31:31;102113.59;;;5.62;100.00
69058;BME280;56128;37.534;-122.308;2023-04-06T06:33:57;102114.59;;;5.58;100.00
69058;BME280;56128;37.534;-122.308;2023-04-06T06:36:23;102107.72;;;5.52;100.00
69058;BME280;56128;37.534;-122.308;2023-04-06T06:38:51;102109.47;;;5.53;100.00
69058;BME280;56128;37.534;-122.308;2023-04-06T06:41:17;102113.09;;;5.49;100.00
69058;BME280;56128;37.534;-122.308;2023-04-06T06:43:43;102110.63;;;5.45;100.00
69058;BME280;56128;37.534;-122.308;2023-04-06T06:46:10;102109.69;;;5.46;100.00
69058;BME280;56128;37.534;-122.308;2023-04-06T06:48:36;102110.78;;;5.40;100.00
69058;BME280;56128;37.534;-122.308;2023-04-06T06:51:02;102114.47;;;5.34;100.00
69058;BME280;56128;37.534;-122.308;2023-04-06T06:53:29;102110.13;;;5.32;100.00
69058;BME280;56128;37.534;-122.308;2023-04-06T06:55:55;102100.69;;;5.23;100.00
69058;BME280;56128;37.534;-122.308;2023-04-06T06:58:21;102109.69;;;5.19;100.00
69058;BME280;56128;37.534;-122.308;2023-04-06T07:00:48;102108.84;;;5.17;100.00
69058;BME280;56128;37.534;-122.308;2023-04-06T07:03:14;102115.22;;;5.11;100.00
69058;BME280;56128;37.534;-122.308;2023-04-06T07:05:47;102113.69;;;5.04;100.00
69058;BME280;56128;37.534;-122.308;2023-04-06T07:08:23;102106.69;;;5.01;100.00
69058;BME280;56128;37.534;-122.308;2023-04-06T07:10:50;102108.63;;;4.96;100.00
69058;BME280;56128;37.534;-122.308;2023-04-06T07:13:21;102104.47;;;4.87;100.00
69058;BME280;56128;37.534;-122.308;2023-04-06T07:15:50;102103.59;;;4.87;100.00
69058;BME280;56128;37.534;-122.308;2023-04-06T07:18:17;102104.56;;;4.84;100.00
69058;BME280;56128;37.534;-122.308;2023-04-06T07:20:43;102101.94;;;4.83;100.00
69058;BME280;56128;37.534;-122.308;2023-04-06T07:23:10;102106.53;;;4.78;100.00
69058;BME280;56128;37.534;-122.308;2023-04-06T07:25:36;102095.19;;;4.72;100.00
69058;BME280;56128;37.534;-122.308;2023-04-06T07:28:03;102098.69;;;4.75;100.00
69058;BME280;56128;37.534;-122.308;2023-04-06T07:30:30;102099.63;;;5.00;100.00
69058;BME280;56128;37.534;-122.308;2023-04-06T07:32:56;102092.94;;;4.88;100.00
69058;BME280;56128;37.534;-122.308;2023-04-06T07:35:23;102088.84;;;4.78;100.00
69058;BME280;56128;37.534;-122.308;2023-04-06T07:37:50;102090.78;;;4.71;100.00
69058;BME280;56128;37.534;-122.308;2023-04-06T07:40:16;102100.59;;;4.69;100.00
69058;BME280;56128;37.534;-122.308;2023-04-06T07:42:42;102100.78;;;4.63;100.00
69058;BME280;56128;37.534;-122.308;2023-04-06T07:45:08;102090.44;;;4.54;100.00
69058;BME280;56128;37.534;-122.308;2023-04-06T07:47:35;102102.88;;;4.52;100.00
69058;BME280;56128;37.534;-122.308;2023-04-06T07:50:01;102103.88;;;4.48;100.00
69058;BME280;56128;37.534;-122.308;2023-04-06T07:52:27;102103.09;;;4.44;100.00
69058;BME280;56128;37.534;-122.308;2023-04-06T07:54:53;102097.06;;;4.39;100.00
69058;BME280;56128;37.534;-122.308;2023-04-06T07:57:20;102099.75;;;4.37;100.00
69058;BME280;56128;37.534;-122.308;2023-04-06T07:59:46;102092.88;;;4.30;100.00
69058;BME280;56128;37.534;-122.308;2023-04-06T08:02:12;102096.47;;;4.29;100.00
69058;BME280;56128;37.534;-122.308;2023-04-06T08:04:38;102100.03;;;4.28;100.00
69058;BME280;56128;37.534;-122.308;2023-04-06T08:07:04;102099.28;;;4.23;100.00
69058;BME280;56128;37.534;-122.308;2023-04-06T08:09:30;102098.56;;;4.18;100.00
69058;BME280;56128;37.534;-122.308;2023-04-06T08:11:57;102103.84;;;4.18;100.00
69058;BME280;56128;37.534;-122.308;2023-04-06T08:14:23;102103.91;;;4.15;100.00
69058;BME280;56128;37.534;-122.308;2023-04-06T08:16:49;102095.25;;;4.10;100.00
69058;BME280;56128;37.534;-122.308;2023-04-06T08:19:16;102098.78;;;4.09;100.00
69058;BME280;56128;37.534;-122.308;2023-04-06T08:21:45;102090.06;;;4.05;100.00
69058;BME280;56128;37.534;-122.308;2023-04-06T08:24:12;102093.63;;;4.04;100.00
69058;BME280;56128;37.534;-122.308;2023-04-06T08:26:38;102089.25;;;4.03;100.00
69058;BME280;56128;37.534;-122.308;2023-04-06T08:29:04;102086.72;;;3.98;100.00
69058;BME280;56128;37.534;-122.308;2023-04-06T08:31:34;102093.75;;;3.99;100.00
69058;BME280;56128;37.534;-122.308;2023-04-06T08:34:01;102093.75;;;3.99;100.00
69058;BME280;56128;37.534;-122.308;2023-04-06T08:36:27;102094.72;;;3.95;100.00
69058;BME280;56128;37.534;-122.308;2023-04-06T08:38:53;102095.72;;;3.91;100.00
69058;BME280;56128;37.534;-122.308;2023-04-06T08:41:20;102090.53;;;3.88;100.00
69058;BME280;56128;37.534;-122.308;2023-04-06T08:43:49;102088.75;;;3.88;100.00
69058;BME280;56128;37.534;-122.308;2023-04-06T08:46:15;102089.66;;;3.87;100.00
69058;BME280;56128;37.534;-122.308;2023-04-06T08:48:42;102091.34;;;3.90;100.00
69058;BME280;56128;37.534;-122.308;2023-04-06T08:51:10;102089.59;;;3.90;100.00
69058;BME280;56128;37.534;-122.308;2023-04-06T08:53:36;102086.09;;;3.88;100.00
69058;BME280;56128;37.534;-122.308;2023-04-06T08:56:03;102091.44;;;3.87;100.00
69058;BME280;56128;37.534;-122.308;2023-04-06T08:58:35;102081.75;;;3.86;100.00
69058;BME280;56128;37.534;-122.308;2023-04-06T09:01:06;102080.91;;;3.84;100.00
69058;BME280;56128;37.534;-122.308;2023-04-06T09:03:40;102089.81;;;3.81;100.00
69058;BME280;56128;37.534;-122.308;2023-04-06T09:06:07;102083.59;;;3.82;100.00
69058;BME280;56128;37.534;-122.308;2023-04-06T09:08:34;102088.94;;;3.81;100.00
69058;BME280;56128;37.534;-122.308;2023-04-06T09:11:03;102086.34;;;3.79;100.00
69058;BME280;56128;37.534;-122.308;2023-04-06T09:13:30;102079.34;;;3.77;100.00
69058;BME280;56128;37.534;-122.308;2023-04-06T09:16:04;102081.16;;;3.74;100.00
69058;BME280;56128;37.534;-122.308;2023-04-06T09:18:32;102084.66;;;3.77;100.00
69058;BME280;56128;37.534;-122.308;2023-04-06T09:21:04;102085.63;;;3.72;100.00
69058;BME280;56128;37.534;-122.308;2023-04-06T09:23:31;102087.47;;;3.70;100.00
69058;BME280;56128;37.534;-122.308;2023-04-06T09:26:05;102085.66;;;3.71;100.00
69058;BME280;56128;37.534;-122.308;2023-04-06T09:28:48;102083.97;;;3.68;100.00
69058;BME280;56128;37.534;-122.308;2023-04-06T09:31:24;102089.22;;;3.71;100.00
69058;BME280;56128;37.534;-122.308;2023-04-06T09:33:52;102086.56;;;3.71;100.00
69058;BME280;56128;37.534;-122.308;2023-04-06T09:36:19;102091.88;;;3.70;100.00
69058;BME280;56128;37.534;-122.308;2023-04-06T09:38:56;102080.31;;;3.72;100.00
69058;BME280;56128;37.534;-122.308;2023-04-06T09:44:02;102089.97;;;3.75;100.00
69058;BME280;56128;37.534;-122.308;2023-04-06T09:46:32;102085.47;;;3.79;100.00
69058;BME280;56128;37.534;-122.308;2023-04-06T09:49:03;102088.84;;;3.84;100.00
69058;BME280;56128;37.534;-122.308;2023-04-06T09:51:38;102085.31;;;3.85;100.00
69058;BME280;56128;37.534;-122.308;2023-04-06T09:54:06;102085.31;;;3.85;100.00
69058;BME280;56128;37.534;-122.308;2023-04-06T10:01:56;102081.66;;;3.89;100.00
69058;BME280;56128;37.534;-122.308;2023-04-06T10:06:57;102076.44;;;3.86;100.00
69058;BME280;56128;37.534;-122.308;2023-04-06T10:09:28;102080.06;;;3.83;100.00
69058;BME280;56128;37.534;-122.308;2023-04-06T10:12:05;102069.50;;;3.82;100.00
69058;BME280;56128;37.534;-122.308;2023-04-06T10:14:33;102065.97;;;3.81;100.00
69058;BME280;56128;37.534;-122.308;2023-04-06T10:17:04;102073.06;;;3.81;100.00
69058;BME280;56128;37.534;-122.308;2023-04-06T10:22:36;102063.38;;;3.80;100.00
69058;BME280;56128;37.534;-122.308;2023-04-06T10:25:04;102051.03;;;3.80;100.00
69058;BME280;56128;37.534;-122.308;2023-04-06T10:27:32;102044.00;;;3.78;100.00
69058;BME280;56128;37.534;-122.308;2023-04-06T10:30:06;102033.41;;;3.78;100.00
69058;BME280;56128;37.534;-122.308;2023-04-06T10:32:41;102029.00;;;3.78;100.00
69058;BME280;56128;37.534;-122.308;2023-04-06T10:35:11;102020.19;;;3.78;100.00
69058;BME280;56128;37.534;-122.308;2023-04-06T10:37:53;102018.38;;;3.80;100.00
69058;BME280;56128;37.534;-122.308;2023-04-06T10:40:24;102013.06;;;3.80;100.00
69058;BME280;56128;37.534;-122.308;2023-04-06T10:42:55;101996.34;;;3.79;100.00
69058;BME280;56128;37.534;-122.308;2023-04-06T10:45:26;101983.00;;;3.82;100.00
69058;BME280;56128;37.534;-122.308;2023-04-06T10:47:56;101983.78;;;3.86;100.00
69058;BME280;56128;37.534;-122.308;2023-04-06T10:50:23;101984.69;;;3.85;100.00
69058;BME280;56128;37.534;-122.308;2023-04-06T10:52:59;101986.44;;;3.86;100.00
69058;BME280;56128;37.534;-122.308;2023-04-06T10:55:29;101979.34;;;3.86;100.00
69058;BME280;56128;37.534;-122.308;2023-04-06T10:57:56;101980.22;;;3.87;100.00
69058;BME280;56128;37.534;-122.308;2023-04-06T11:00:23;101981.97;;;3.88;100.00
69058;BME280;56128;37.534;-122.308;2023-04-06T11:02:49;101981.88;;;3.91;100.00
69058;BME280;56128;37.534;-122.308;2023-04-06T11:05:16;101979.25;;;3.89;100.00
69058;BME280;56128;37.534;-122.308;2023-04-06T11:07:44;101986.31;;;3.89;100.00
69058;BME280;56128;37.534;-122.308;2023-04-06T11:10:10;101982.81;;;3.88;100.00
69058;BME280;56128;37.534;-122.308;2023-04-06T11:12:36;101975.84;;;3.86;100.00
69058;BME280;56128;37.534;-122.308;2023-04-06T11:15:03;101971.31;;;3.89;100.00
69058;BME280;56128;37.534;-122.308;2023-04-06T11:17:33;101961.56;;;3.92;100.00
69058;BME280;56128;37.534;-122.308;2023-04-06T11:20:00;101963.31;;;3.91;100.00
69058;BME280;56128;37.534;-122.308;2023-04-06T11:22:26;101947.38;;;3.94;100.00
69058;BME280;56128;37.534;-122.308;2023-04-06T11:24:53;101946.44;;;3.95;100.00
69058;BME280;56128;37.534;-122.308;2023-04-06T11:27:19;101945.56;;;3.95;100.00
69058;BME280;56128;37.534;-122.308;2023-04-06T11:29:46;101951.69;;;3.97;100.00
69058;BME280;56128;37.534;-122.308;2023-04-06T11:32:21;101945.53;;;3.96;100.00
69058;BME280;56128;37.534;-122.308;2023-04-06T11:34:48;101955.25;;;3.96;100.00
69058;BME280;56128;37.534;-122.308;2023-04-06T11:37:14;101949.06;;;3.95;100.00
69058;BME280;56128;37.534;-122.308;2023-04-06T11:39:46;101949.06;;;3.95;100.00
69058;BME280;56128;37.534;-122.308;2023-04-06T11:42:24;101946.44;;;3.95;100.00
69058;BME280;56128;37.534;-122.308;2023-04-06T11:44:55;101950.97;;;3.92;100.00
69058;BME280;56128;37.534;-122.308;2023-04-06T11:47:32;101950.09;;;3.91;100.00
69058;BME280;56128;37.534;-122.308;2023-04-06T11:50:14;101951.00;;;3.90;100.00
69058;BME280;56128;37.534;-122.308;2023-04-06T11:52:41;101948.41;;;3.88;100.00
69058;BME280;56128;37.534;-122.308;2023-04-06T11:55:15;101943.97;;;3.89;100.00
69058;BME280;56128;37.534;-122.308;2023-04-06T11:57:42;101942.16;;;3.91;100.00
69058;BME280;56128;37.534;-122.308;2023-04-06T12:00:09;101944.84;;;3.89;100.00
69058;BME280;56128;37.534;-122.308;2023-04-06T12:02:36;101949.25;;;3.89;100.00
69058;BME280;56128;37.534;-122.308;2023-04-06T12:05:04;101954.59;;;3.87;100.00
69058;BME280;56128;37.534;-122.308;2023-04-06T12:07:31;101946.72;;;3.86;100.00
69058;BME280;56128;37.534;-122.308;2023-04-06T12:09:58;101956.47;;;3.84;100.00
69058;BME280;56128;37.534;-122.308;2023-04-06T12:12:25;101959.16;;;3.82;100.00
69058;BME280;56128;37.534;-122.308;2023-04-06T12:14:51;101953.97;;;3.79;100.00
69058;BME280;56128;37.534;-122.308;2023-04-06T12:17:19;101948.84;;;3.73;100.00
69058;BME280;56128;37.534;-122.308;2023-04-06T12:19:46;101951.56;;;3.71;100.00
69058;BME280;56128;37.534;-122.308;2023-04-06T12:22:12;101957.78;;;3.69;100.00
69058;BME280;56128;37.534;-122.308;2023-04-06T12:24:38;101955.16;;;3.67;100.00
69058;BME280;56128;37.534;-122.308;2023-04-06T12:27:04;101954.44;;;3.62;100.00
69058;BME280;56128;37.534;-122.308;2023-04-06T12:29:31;101957.19;;;3.57;100.00
69058;BME280;56128;37.534;-122.308;2023-04-06T12:31:57;101948.63;;;3.49;100.00